FW2865 Weather Reports


Display with metric or nautical units.
time (UTC)temp
F
wind
direction
speed
MPH
gust
MPH
rain 1hr
in
rain 24hr
in
rain mn
in
humidity
%
barometer
mb
20240226141602 28 360 2.0 4.0 0.00 0.00 0.00 58 1008.7
20240226140059 29 360 3.0 6.0 0.00 0.00 0.00 57 1009.0
20240226134555 28 360 0.0 0.0 0.00 0.00 0.00 57 1009.1
20240226133052 28 360 0.0 0.0 0.00 0.00 0.00 57 1009.1
20240226131552 28 360 0.0 3.0 0.00 0.00 0.00 57 1009.2
20240226130048 28 360 3.0 5.0 0.00 0.00 0.00 56 1009.3
20240226124547 28 360 2.0 4.0 0.00 0.00 0.00 55 1009.5
20240226123044 29 360 0.0 3.0 0.00 0.00 0.00 56 1009.8
20240226121548 28 360 0.0 3.0 0.00 0.00 0.00 55 1009.8
20240226120041 28 360 1.0 5.0 0.00 0.00 0.00 54 1010.1
20240226114540 28 360 0.0 3.0 0.00 0.00 0.00 53 1010.2
20240226113038 29 360 1.0 3.0 0.00 0.00 0.00 52 1010.3
20240226111535 30 360 0.0 3.0 0.00 0.00 0.00 52 1010.5
20240226110135 31 360 0.0 0.0 0.00 0.00 0.00 52 1010.6
20240226104530 31 360 4.0 5.0 0.00 0.00 0.00 50 1010.6
20240226103027 32 360 0.0 0.0 0.00 0.00 0.00 49 1010.7
20240226101526 33 360 0.0 0.0 0.00 0.00 0.00 48 1010.9
20240226100022 33 360 0.0 3.0 0.00 0.00 0.00 46 1011.1
20240226094520 34 360 0.0 0.0 0.00 0.00 0.00 45 1011.4
20240226093019 35 360 1.0 5.0 0.00 0.00 0.00 43 1011.5
20240226091516 36 360 2.0 5.0 0.00 0.00 0.00 41 1011.9
20240226090010 37 360 0.0 0.0 0.00 0.00 0.00 39 1012.1
20240226084511 39 360 0.0 0.0 0.00 0.00 0.00 36 1012.3
20240226083008 41 360 2.0 6.0 0.00 0.00 0.00 34 1012.6
20240226081506 42 360 3.0 5.0 0.00 0.00 0.00 32 1012.8
20240226080007 43 360 3.0 5.0 0.00 0.00 0.00 29 1012.8
20240226074517 43 360 3.0 8.0 0.00 0.00 0.00 29 1013.2
20240226073100 42 360 2.0 5.0 0.00 0.00 0.00 30 1013.4
20240226071556 41 360 2.0 12.0 0.00 0.00 0.00 32 1013.6
20240226070051 37 360 4.0 11.0 0.00 0.00 0.00 38 1013.8
20240226064548 35 360 0.0 9.0 0.00 0.00 0.00 45 1013.9
20240226063046 33 360 3.0 6.0 0.00 0.00 0.00 48 1014.0
20240226061545 33 360 0.0 6.0 0.00 0.00 0.00 48 1014.0
20240226060042 32 360 0.0 2.0 0.00 0.00 0.00 47 1014.3
20240226054543 33 360 0.0 0.0 0.00 0.00 0.00 45 1014.5
20240226053042 34 360 0.0 4.0 0.00 0.00 0.00 44 1014.5
20240226051548 36 360 1.0 9.0 0.00 0.00 0.00 42 1014.9
20240226050039 35 360 7.0 11.0 0.00 0.00 0.00 41 1015.2
20240226044542 32 360 4.0 9.0 0.00 0.00 0.00 46 1015.4
20240226043037 33 360 0.0 0.0 0.00 0.00 0.00 45 1015.4
20240226041535 33 360 1.0 3.0 0.00 0.00 0.00 44 1015.5
20240226040036 34 360 0.0 3.0 0.00 0.00 0.00 42 1015.6
20240226034533 35 360 1.0 3.0 0.00 0.00 0.00 41 1015.6
20240226033043 35 360 1.0 4.0 0.00 0.00 0.00 38 1015.8
20240226031530 36 360 0.0 2.0 0.00 0.00 0.00 39 1016.0
20240226030028 37 360 0.0 3.0 0.00 0.00 0.00 36 1016.2
20240226024534 38 360 0.0 3.0 0.00 0.00 0.00 34 1016.3
20240226023026 39 360 0.0 2.0 0.00 0.00 0.00 32 1016.4
20240226021530 40 360 2.0 4.0 0.00 0.00 0.00 31 1016.6
20240226020028 42 360 1.0 3.0 0.00 0.00 0.00 30 1016.7
20240226014523 42 360 1.0 5.0 0.00 0.00 0.00 29 1016.7
20240226013022 42 360 0.0 0.0 0.00 0.00 0.00 27 1016.4
20240226011531 43 360 0.0 4.0 0.00 0.00 0.00 27 1016.5
20240226010021 45 360 0.0 4.0 0.00 0.00 0.00 27 1016.5
20240226004534 45 360 2.0 12.0 0.00 0.00 0.00 26 1016.6
20240226003021 46 360 2.0 12.0 0.00 0.00 0.00 25 1016.7
20240226001519 46 360 1.0 9.0 0.00 0.00 0.00 26 1016.8
20240226000026 46 360 5.0 10.0 0.00 0.00 0.00 25 1017.0
20240225234516 47 360 4.0 9.0 0.00 0.00 0.00 25 1017.0
20240225233030 49 360 2.0 4.0 0.00 0.00 0.00 23 1017.3
20240225231526 51 343 4.0 8.0 0.00 0.00 0.00 20 1017.3
20240225230017 51 208 5.0 9.0 0.00 0.00 0.00 20 1017.5
20240225224519 51 350 3.0 16.0 0.00 0.00 0.00 19 1017.5
20240225223029 51 360 5.0 16.0 0.00 0.00 0.00 19 1017.6
20240225221506 51 360 4.0 12.0 0.00 0.00 0.00 19 1017.6
20240225220011 49 360 1.0 8.0 0.00 0.00 0.00 19 1017.8
20240225214510 49 360 5.0 12.0 0.00 0.00 0.00 23 1017.9
20240225213002 50 178 0.0 5.0 0.00 0.00 0.00 22 1018.2
20240225211559 49 164 4.0 8.0 0.00 0.00 0.00 26 1018.3
20240225210057 48 167 5.0 8.0 0.00 0.00 0.00 25 1018.6
20240225204557 48 266 9.0 17.0 0.00 0.00 0.00 23 1018.9
20240225203054 47 171 4.0 9.0 0.00 0.00 0.00 27 1019.2
20240225201554 47 360 6.0 9.0 0.00 0.00 0.00 28 1019.4
20240225200055 47 173 4.0 8.0 0.00 0.00 0.00 28 1019.7
20240225194551 46 360 5.0 9.0 0.00 0.00 0.00 29 1020.2
20240225193050 44 360 7.0 13.0 0.00 0.00 0.00 31 1020.5
20240225191544 44 360 5.0 10.0 0.00 0.00 0.00 31 1020.9
20240225190038 43 360 8.0 13.0 0.00 0.00 0.00 33 1021.2
20240225184536 42 360 10.0 13.0 0.00 0.00 0.00 33 1021.4
20240225183027 41 360 9.0 12.0 0.00 0.00 0.00 35 1021.6
20240225181524 40 360 5.0 9.0 0.00 0.00 0.00 38 1021.8
20240225180019 39 360 7.0 11.0 0.00 0.00 0.00 39 1022.1
20240225174522 37 360 9.0 12.0 0.00 0.00 0.00 42 1022.2
20240225173014 35 360 6.0 9.0 0.00 0.00 0.00 44 1022.4
20240225171509 34 360 4.0 5.0 0.00 0.00 0.00 46 1022.7
20240225170004 31 360 3.0 5.0 0.00 0.00 0.00 51 1022.8
20240225164627 29 360 0.0 2.0 0.00 0.00 0.00 54 1022.9
20240225163057 26 360 2.0 6.0 0.00 0.00 0.00 55 1023.2
20240225161552 25 360 5.0 8.0 0.00 0.00 0.00 56 1023.2
20240225160048 23 360 1.0 4.0 0.00 0.00 0.00 58 1023.2
20240225154544 21 360 1.0 5.0 0.00 0.00 0.00 60 1023.3
20240225153041 20 360 0.0 5.0 0.00 0.00 0.00 62 1023.3
20240225151541 18 360 1.0 3.0 0.00 0.00 0.00 64 1023.3
20240225150040 17 360 0.0 4.0 0.00 0.00 0.00 64 1023.3
20240225144543 15 360 0.0 2.0 0.00 0.00 0.00 64 1023.2
20240225143028 15 360 0.0 0.0 0.00 0.00 0.00 63 1023.0